createdAt,value
2023-04-01T00:00:24.500Z,9.50
2023-04-01T00:01:27.239Z,10.20
2023-04-01T00:02:29.902Z,9.77
2023-04-01T00:03:34.447Z,10.02
2023-04-01T00:04:37.465Z,10.55
2023-04-01T00:05:40.561Z,9.60
2023-04-01T00:06:43.147Z,10.93
2023-04-01T00:07:47.119Z,10.30
2023-04-01T00:08:49.718Z,9.65
2023-04-01T00:09:52.545Z,10.20
2023-04-01T00:10:55.580Z,10.65
2023-04-01T00:11:58.139Z,10.05
2023-04-01T00:13:01.012Z,10.93
2023-04-01T00:14:03.719Z,9.77
2023-04-01T00:15:09.367Z,11.00
2023-04-01T00:16:21.055Z,10.80
2023-04-01T00:17:25.178Z,9.23
2023-04-01T00:18:28.058Z,10.18
2023-04-01T00:19:30.585Z,9.38
2023-04-01T00:20:33.493Z,12.55
2023-04-01T00:21:36.088Z,10.05
2023-04-01T00:22:38.676Z,10.23
2023-04-01T00:23:41.484Z,10.63
2023-04-01T00:24:44.141Z,9.40
2023-04-01T00:25:48.924Z,10.73
2023-04-01T00:26:51.663Z,10.45
2023-04-01T00:27:54.543Z,11.05
2023-04-01T00:28:57.433Z,10.18
2023-04-01T00:30:00.019Z,11.35
2023-04-01T00:31:08.920Z,10.65
2023-04-01T00:32:11.731Z,10.27
2023-04-01T00:33:14.277Z,11.75
2023-04-01T00:34:17.025Z,10.77
2023-04-01T00:35:19.800Z,10.95
2023-04-01T00:36:23.043Z,10.77
2023-04-01T00:37:26.034Z,10.50
2023-04-01T00:38:28.572Z,10.52
2023-04-01T00:39:32.329Z,11.25
2023-04-01T00:40:37.721Z,10.60
2023-04-01T00:41:40.357Z,10.75
2023-04-01T00:42:42.859Z,10.60
2023-04-01T00:43:48.252Z,10.25
2023-04-01T00:44:55.386Z,11.15
2023-04-01T00:45:58.275Z,11.02
2023-04-01T00:47:02.195Z,11.13
2023-04-01T00:48:29.963Z,11.05
2023-04-01T00:49:40.802Z,12.02
2023-04-01T00:51:49.120Z,11.20
2023-04-01T00:52:51.889Z,11.90
2023-04-01T00:53:55.447Z,12.43
2023-04-01T00:55:00.165Z,11.68
2023-04-01T00:56:07.254Z,11.05
2023-04-01T00:57:13.596Z,12.20
2023-04-01T00:58:18.523Z,11.60
2023-04-01T00:59:25.375Z,13.35
2023-04-01T01:00:27.872Z,12.50
2023-04-01T01:01:32.215Z,13.00
2023-04-01T01:02:36.644Z,11.77
2023-04-01T01:03:39.347Z,11.52
2023-04-01T01:04:42.232Z,12.57
2023-04-01T01:06:18.060Z,12.18
2023-04-01T01:07:38.798Z,12.60
2023-04-01T01:10:16.993Z,11.75
2023-04-01T01:11:25.244Z,12.60
2023-04-01T01:13:08.074Z,12.30
2023-04-01T01:14:37.813Z,12.00
2023-04-01T01:16:06.884Z,12.02
2023-04-01T01:17:28.777Z,12.25
2023-04-01T01:19:00.628Z,11.70
2023-04-01T01:20:26.377Z,12.80
2023-04-01T01:21:52.208Z,12.20
2023-04-01T01:23:33.038Z,12.48
2023-04-01T01:24:50.552Z,12.88
2023-04-01T01:25:55.868Z,13.63
2023-04-01T01:27:00.331Z,13.27
2023-04-01T01:28:35.472Z,13.43
2023-04-01T01:29:43.968Z,12.45
2023-04-01T01:30:56.230Z,13.55
2023-04-01T01:32:07.576Z,13.82
2023-04-01T01:33:27.212Z,13.40
2023-04-01T01:34:47.583Z,13.73
2023-04-01T01:35:51.815Z,12.52
2023-04-01T01:36:59.282Z,12.93
2023-04-01T01:38:10.605Z,13.18
2023-04-01T01:39:14.130Z,12.45
2023-04-01T01:40:17.290Z,12.30
2023-04-01T01:41:21.244Z,12.40
2023-04-01T01:42:26.449Z,14.00
2023-04-01T01:43:33.578Z,13.77
2023-04-01T01:44:37.458Z,14.13
2023-04-01T01:45:44.417Z,14.18
2023-04-01T01:46:46.974Z,12.32
2023-04-01T01:47:50.489Z,13.00
2023-04-01T01:48:53.924Z,14.45
2023-04-01T01:49:57.090Z,12.57
2023-04-01T01:51:00.863Z,13.52
2023-04-01T01:52:04.670Z,12.98
2023-04-01T01:53:10.068Z,13.05
2023-04-01T01:54:17.179Z,13.50
2023-04-01T01:55:34.139Z,13.57
2023-04-01T01:56:37.456Z,13.27
2023-04-01T01:57:40.796Z,12.88
2023-04-01T01:58:53.571Z,13.88
2023-04-01T02:00:14.042Z,11.88
2023-04-01T02:02:27.289Z,11.57
2023-04-01T02:03:34.248Z,14.50
2023-04-01T02:04:40.523Z,13.52
2023-04-01T02:05:43.759Z,12.63
2023-04-01T02:07:03.702Z,12.40
2023-04-01T02:08:10.510Z,12.52
2023-04-01T02:09:13.170Z,12.18
2023-04-01T02:10:16.344Z,12.50
2023-04-01T02:11:21.085Z,11.30
2023-04-01T02:12:25.999Z,12.27
2023-04-01T02:13:39.726Z,12.95
2023-04-01T02:14:47.205Z,11.68
2023-04-01T02:15:50.677Z,11.77
2023-04-01T02:17:18.074Z,11.18
2023-04-01T02:18:21.727Z,11.57
2023-04-01T02:19:29.113Z,12.00
2023-04-01T02:20:34.081Z,11.82
2023-04-01T02:21:37.566Z,10.60
2023-04-01T02:22:45.558Z,12.23
2023-04-01T02:23:48.369Z,11.30
2023-04-01T02:24:58.122Z,12.05
2023-04-01T02:26:01.728Z,11.40
2023-04-01T02:27:05.187Z,10.55
2023-04-01T02:28:08.514Z,11.60
2023-04-01T02:29:13.276Z,9.93
2023-04-01T02:30:17.048Z,11.07
2023-04-01T02:31:19.918Z,12.20
2023-04-01T02:32:22.654Z,10.95
2023-04-01T02:33:25.211Z,10.95
2023-04-01T02:34:27.895Z,11.15
2023-04-01T02:35:30.865Z,10.75
2023-04-01T02:36:33.634Z,11.23
2023-04-01T02:37:37.326Z,10.50
2023-04-01T02:38:43.080Z,12.05
2023-04-01T02:39:45.679Z,10.60
2023-04-01T02:40:53.340Z,11.25
2023-04-01T02:41:56.069Z,10.63
2023-04-01T02:42:59.207Z,11.02
2023-04-01T02:44:01.777Z,10.75
2023-04-01T02:45:05.473Z,11.38
2023-04-01T02:46:08.225Z,10.45
2023-04-01T02:47:10.740Z,12.23
2023-04-01T02:48:15.040Z,11.02
2023-04-01T02:49:17.561Z,11.20
2023-04-01T02:50:20.290Z,10.13
2023-04-01T02:51:22.864Z,10.43
2023-04-01T02:52:29.794Z,11.60
2023-04-01T02:53:34.356Z,9.35
2023-04-01T02:54:36.873Z,9.77
2023-04-01T02:55:39.473Z,10.60
2023-04-01T02:56:42.062Z,10.65
2023-04-01T02:57:44.613Z,10.52
2023-04-01T02:58:47.697Z,11.43
2023-04-01T02:59:50.278Z,11.35
2023-04-01T03:00:52.841Z,9.50
2023-04-01T03:01:55.390Z,10.15
2023-04-01T03:02:58.201Z,9.90
2023-04-01T03:04:00.845Z,10.48
2023-04-01T03:05:03.575Z,9.65
2023-04-01T03:06:10.573Z,9.88
2023-04-01T03:07:13.334Z,10.18
2023-04-01T03:08:15.863Z,10.25
2023-04-01T03:09:18.389Z,9.80
2023-04-01T03:10:21.013Z,9.40
2023-04-01T03:11:23.923Z,9.98
2023-04-01T03:12:26.719Z,9.38
2023-04-01T03:13:29.331Z,10.63
2023-04-01T03:14:31.899Z,9.65
2023-04-01T03:15:34.602Z,9.45
2023-04-01T03:16:37.401Z,9.52
2023-04-01T03:17:40.510Z,9.48
2023-04-01T03:18:43.317Z,8.88
2023-04-01T03:19:45.890Z,8.98
2023-04-01T03:20:48.867Z,9.15
2023-04-01T03:21:51.430Z,9.75
2023-04-01T03:22:54.067Z,10.43
2023-04-01T03:23:56.679Z,9.73
2023-04-01T03:24:59.290Z,9.65
2023-04-01T03:26:01.921Z,9.25
2023-04-01T03:27:04.433Z,10.25
2023-04-01T03:28:06.979Z,9.18
2023-04-01T03:29:09.766Z,10.25
2023-04-01T03:30:12.456Z,10.00
2023-04-01T03:31:23.946Z,10.00
2023-04-01T03:32:30.411Z,9.90
2023-04-01T03:33:33.355Z,8.98
2023-04-01T03:34:35.787Z,9.77
2023-04-01T03:35:38.502Z,10.13
2023-04-01T03:36:44.275Z,9.80
2023-04-01T03:37:46.912Z,9.38
2023-04-01T03:38:49.744Z,9.23
2023-04-01T03:39:58.808Z,9.10
2023-04-01T03:41:02.935Z,10.45
2023-04-01T03:42:07.584Z,10.20
2023-04-01T03:43:11.068Z,10.38
2023-04-01T03:44:14.608Z,9.55
2023-04-01T03:45:17.414Z,9.27
2023-04-01T03:46:20.625Z,9.57
2023-04-01T03:47:23.866Z,9.73
2023-04-01T03:48:26.998Z,9.55
2023-04-01T03:49:30.079Z,10.38
2023-04-01T03:50:32.505Z,9.98
2023-04-01T03:51:34.928Z,9.20
2023-04-01T03:52:37.692Z,9.50
2023-04-01T03:53:40.278Z,9.23
2023-04-01T03:54:42.818Z,9.95
2023-04-01T03:55:45.524Z,10.20
2023-04-01T03:56:48.335Z,10.20
2023-04-01T03:57:51.245Z,9.20
2023-04-01T03:58:54.933Z,8.98
2023-04-01T03:59:57.730Z,9.75
2023-04-01T04:01:00.497Z,10.10
2023-04-01T04:02:03.214Z,8.93
2023-04-01T04:03:07.722Z,9.88
2023-04-01T04:04:15.710Z,10.02
2023-04-01T04:05:18.633Z,9.52
2023-04-01T04:06:21.189Z,9.70
2023-04-01T04:07:24.587Z,9.48
2023-04-01T04:08:36.805Z,10.32
2023-04-01T04:09:39.350Z,9.25
2023-04-01T04:10:42.509Z,10.13
2023-04-01T04:11:47.544Z,9.63
2023-04-01T04:12:50.984Z,9.43
2023-04-01T04:13:55.599Z,9.93
2023-04-01T04:14:59.260Z,8.43
2023-04-01T04:16:01.814Z,9.20
2023-04-01T04:17:04.960Z,8.93
2023-04-01T04:18:07.594Z,8.55
2023-04-01T04:19:10.319Z,8.00
2023-04-01T04:20:12.910Z,7.93
2023-04-01T04:21:15.977Z,8.15
2023-04-01T04:22:19.355Z,7.97
2023-04-01T04:23:22.187Z,8.25
2023-04-01T04:24:24.794Z,8.00
2023-04-01T04:25:43.102Z,7.95
2023-04-01T04:26:45.799Z,8.25
2023-04-01T04:27:48.817Z,7.78
2023-04-01T04:28:51.849Z,8.07
2023-04-01T04:29:55.060Z,7.95
2023-04-01T04:30:57.882Z,7.50
2023-04-01T04:32:00.561Z,8.13
2023-04-01T04:33:03.529Z,9.25
2023-04-01T04:34:06.023Z,8.80
2023-04-01T04:35:11.508Z,8.35
2023-04-01T04:36:14.464Z,9.45
2023-04-01T04:37:17.099Z,9.57
2023-04-01T04:38:19.834Z,9.25
2023-04-01T04:39:22.384Z,9.07
2023-04-01T04:40:25.746Z,9.32
2023-04-01T04:41:28.165Z,9.77
2023-04-01T04:42:30.789Z,9.50
2023-04-01T04:43:38.704Z,9.57
2023-04-01T04:44:41.259Z,9.73
2023-04-01T04:45:43.776Z,9.38
2023-04-01T04:46:46.856Z,9.20
2023-04-01T04:47:52.014Z,9.68
2023-04-01T04:48:54.648Z,9.77
2023-04-01T04:49:57.703Z,10.23
2023-04-01T04:51:00.708Z,9.57
2023-04-01T04:52:03.657Z,9.77
2023-04-01T04:53:06.368Z,9.68
2023-04-01T04:54:09.825Z,9.52
2023-04-01T04:55:23.882Z,10.23
2023-04-01T04:56:38.609Z,9.63
2023-04-01T04:57:43.739Z,9.95
2023-04-01T04:58:46.927Z,8.70
2023-04-01T04:59:53.793Z,8.65
2023-04-01T05:01:21.275Z,8.82
2023-04-01T05:02:24.133Z,9.23
2023-04-01T05:03:26.802Z,8.73
2023-04-01T05:04:29.645Z,9.88
2023-04-01T05:05:32.495Z,9.95
2023-04-01T05:06:35.398Z,9.32
2023-04-01T05:07:38.624Z,9.55
2023-04-01T05:08:42.689Z,9.30
2023-04-01T05:09:46.806Z,9.00
2023-04-01T05:10:49.867Z,8.45
2023-04-01T05:11:52.528Z,9.25
2023-04-01T05:12:56.420Z,8.55
2023-04-01T05:13:59.804Z,8.70
2023-04-01T05:15:05.630Z,8.60
2023-04-01T05:16:12.991Z,9.10
2023-04-01T05:17:15.816Z,8.18
2023-04-01T05:18:18.542Z,8.25
2023-04-01T05:19:21.427Z,9.38
2023-04-01T05:20:23.964Z,8.63
2023-04-01T05:21:26.576Z,10.15
2023-04-01T05:22:30.668Z,8.48
2023-04-01T05:23:34.229Z,8.07
2023-04-01T05:24:36.812Z,7.90
2023-04-01T05:25:39.672Z,8.25
2023-04-01T05:26:42.386Z,8.20
2023-04-01T05:27:45.010Z,8.27
2023-04-01T05:28:47.700Z,7.60
2023-04-01T05:29:50.644Z,7.80
2023-04-01T05:31:11.430Z,7.55
2023-04-01T05:32:16.609Z,7.22
2023-04-01T05:33:19.328Z,7.25
2023-04-01T05:34:21.974Z,7.60
2023-04-01T05:35:24.986Z,7.35
2023-04-01T05:36:27.571Z,8.57
2023-04-01T05:37:31.475Z,7.97
2023-04-01T05:38:34.031Z,7.13
2023-04-01T05:39:39.911Z,6.97
2023-04-01T05:40:43.711Z,7.10
2023-04-01T05:41:46.554Z,8.13
2023-04-01T05:42:49.070Z,7.05
2023-04-01T05:43:53.021Z,6.85
2023-04-01T05:45:16.526Z,6.25
2023-04-01T05:46:37.230Z,7.05
2023-04-01T05:47:50.491Z,6.40
2023-04-01T05:48:53.831Z,7.07
2023-04-01T05:49:56.691Z,6.32
2023-04-01T05:50:59.240Z,6.05
2023-04-01T05:52:01.693Z,5.88
2023-04-01T05:53:04.425Z,5.95
2023-04-01T05:54:07.192Z,6.18
2023-04-01T05:55:10.356Z,5.97
2023-04-01T05:56:12.993Z,5.47
2023-04-01T05:57:22.105Z,5.82
2023-04-01T05:58:24.802Z,5.85
2023-04-01T05:59:27.553Z,5.03
2023-04-01T06:00:30.297Z,5.18
2023-04-01T06:01:34.847Z,5.18
2023-04-01T06:02:38.728Z,5.10
2023-04-01T06:03:41.800Z,4.47
2023-04-01T06:04:44.435Z,5.38
2023-04-01T06:05:46.980Z,4.50
2023-04-01T06:06:49.549Z,5.78
2023-04-01T06:08:00.471Z,4.35
2023-04-01T06:09:28.646Z,4.45
2023-04-01T06:10:49.707Z,4.00
2023-04-01T06:12:11.167Z,3.90
2023-04-01T06:13:36.241Z,3.90
2023-04-01T06:14:41.889Z,4.40
2023-04-01T06:16:06.315Z,4.15
2023-04-01T06:17:27.196Z,4.18
2023-04-01T06:19:01.844Z,4.05
2023-04-01T06:20:10.121Z,3.85
2023-04-01T06:21:31.301Z,3.97
2023-04-01T06:23:07.947Z,4.35
2023-04-01T06:24:29.698Z,4.07
2023-04-01T06:25:50.013Z,3.85
2023-04-01T06:27:08.813Z,3.72
2023-04-01T06:28:14.945Z,4.63
2023-04-01T06:29:48.189Z,3.92
2023-04-01T06:31:03.302Z,3.83
2023-04-01T06:32:40.105Z,3.50
2023-04-01T06:33:47.366Z,3.75
2023-04-01T06:34:56.340Z,4.22
2023-04-01T06:36:01.726Z,4.35
2023-04-01T06:37:22.983Z,4.15
2023-04-01T06:38:39.763Z,3.72
2023-04-01T06:39:55.061Z,3.60
2023-04-01T06:41:22.297Z,3.70
2023-04-01T06:42:36.782Z,3.58
2023-04-01T06:44:08.233Z,3.58
2023-04-01T06:46:10.675Z,4.00
2023-04-01T06:48:02.195Z,2.90
2023-04-01T06:49:44.728Z,2.78
2023-04-01T06:51:12.717Z,2.85
2023-04-01T06:53:17.292Z,3.08
2023-04-01T06:55:16.797Z,2.53
2023-04-01T06:56:39.344Z,2.53
2023-04-01T06:57:50.600Z,2.90
2023-04-01T06:59:01.172Z,2.47
2023-04-01T07:00:06.766Z,2.85
2023-04-01T07:01:14.679Z,2.97
2023-04-01T07:02:33.681Z,2.40
2023-04-01T07:03:46.277Z,2.85
2023-04-01T07:04:52.396Z,2.17
2023-04-01T07:05:55.646Z,2.50
2023-04-01T07:07:01.085Z,2.35
2023-04-01T07:08:10.813Z,2.30
2023-04-01T07:09:17.600Z,2.13
2023-04-01T07:10:58.494Z,2.22
2023-04-01T07:12:33.224Z,1.95
2023-04-01T07:14:25.548Z,2.20
2023-04-01T07:15:35.334Z,2.10
2023-04-01T07:16:59.954Z,2.30
2023-04-01T07:18:15.467Z,2.53
2023-04-01T07:19:29.172Z,2.10
2023-04-01T07:20:40.696Z,2.38
2023-04-01T07:21:52.137Z,2.08
2023-04-01T07:23:07.297Z,2.28
2023-04-01T07:24:28.353Z,2.10
2023-04-01T07:25:43.071Z,2.88
2023-04-01T07:27:10.463Z,1.85
2023-04-01T07:28:19.663Z,1.92
2023-04-01T07:29:30.521Z,1.80
2023-04-01T07:30:51.699Z,1.80
2023-04-01T07:32:01.752Z,1.92
2023-04-01T07:33:24.195Z,2.05
2023-04-01T07:34:29.597Z,2.10
2023-04-01T07:35:46.800Z,1.35
2023-04-01T07:37:05.400Z,1.60
2023-04-01T07:38:26.630Z,2.55
2023-04-01T07:39:58.837Z,2.20
2023-04-01T07:41:12.710Z,2.05
2023-04-01T07:42:29.360Z,2.50
2023-04-01T07:43:39.931Z,2.50
2023-04-01T07:45:02.992Z,2.70
2023-04-01T07:46:14.723Z,3.28
2023-04-01T07:47:26.177Z,3.10
2023-04-01T07:48:34.339Z,2.58
2023-04-01T07:50:05.988Z,2.28
2023-04-01T07:51:18.969Z,2.05
2023-04-01T07:52:24.746Z,2.40
2023-04-01T07:53:39.476Z,2.08
2023-04-01T07:54:57.421Z,1.85
2023-04-01T07:56:12.813Z,2.10
2023-04-01T07:57:26.429Z,2.03
2023-04-01T07:58:48.456Z,1.83
2023-04-01T08:00:08.391Z,1.90
2023-04-01T08:01:30.396Z,1.73
2023-04-01T08:03:08.344Z,1.67
2023-04-01T08:04:31.977Z,1.90
2023-04-01T08:05:59.539Z,1.95
2023-04-01T08:07:08.868Z,1.92
2023-04-01T08:08:17.624Z,1.65
2023-04-01T08:10:09.536Z,1.58
2023-04-01T08:12:11.154Z,1.92
2023-04-01T08:13:51.750Z,2.25
2023-04-01T08:15:22.873Z,2.38
2023-04-01T08:16:54.662Z,2.17
2023-04-01T08:18:27.312Z,2.25
2023-04-01T08:19:29.817Z,2.47
2023-04-01T08:20:44.241Z,2.15
2023-04-01T08:21:50.158Z,2.45
2023-04-01T08:22:58.717Z,2.83
2023-04-01T08:24:29.763Z,2.67
2023-04-01T08:25:59.545Z,3.23
2023-04-01T08:27:09.761Z,3.33
2023-04-01T08:28:29.159Z,4.28
2023-04-01T08:29:44.254Z,3.92
2023-04-01T08:31:22.164Z,4.55
2023-04-01T08:32:30.263Z,3.35
2023-04-01T08:33:33.713Z,3.72
2023-04-01T08:35:26.721Z,4.03
2023-04-01T08:36:42.398Z,4.18
2023-04-01T08:37:49.714Z,3.72
2023-04-01T08:39:19.765Z,4.10
2023-04-01T08:40:40.937Z,4.40
2023-04-01T08:41:52.741Z,4.18
2023-04-01T08:43:18.084Z,5.32
2023-04-01T08:45:02.175Z,5.15
2023-04-01T08:46:24.146Z,5.10
2023-04-01T08:47:53.119Z,5.07
2023-04-01T08:49:01.459Z,4.85
2023-04-01T08:50:10.186Z,5.50
2023-04-01T08:52:03.994Z,5.32
2023-04-01T08:53:32.723Z,5.30
2023-04-01T08:55:07.688Z,5.25
2023-04-01T08:56:39.254Z,3.65
2023-04-01T08:58:26.763Z,5.30
2023-04-01T09:00:16.590Z,5.38
2023-04-01T09:01:54.761Z,5.85
2023-04-01T09:03:36.141Z,5.28
2023-04-01T09:05:15.708Z,6.35
2023-04-01T09:06:28.367Z,6.45
2023-04-01T09:07:45.354Z,6.50
2023-04-01T09:09:21.269Z,5.75
2023-04-01T09:11:06.156Z,5.90
2023-04-01T09:12:53.985Z,5.65
2023-04-01T09:14:34.620Z,5.85
2023-04-01T09:16:11.852Z,6.20
2023-04-01T09:17:57.621Z,5.22
2023-04-01T09:19:36.972Z,6.25
2023-04-01T09:20:52.100Z,7.00
2023-04-01T09:22:06.763Z,6.40
2023-04-01T09:23:29.262Z,4.97
2023-04-01T09:24:50.595Z,5.35
2023-04-01T09:26:06.783Z,5.28
2023-04-01T09:27:25.229Z,5.88
2023-04-01T09:29:17.380Z,4.72
2023-04-01T09:30:41.637Z,3.97
2023-04-01T09:31:44.457Z,4.30
2023-04-01T09:33:47.892Z,5.90
2023-04-01T09:35:40.873Z,5.28
2023-04-01T09:36:50.382Z,5.15
2023-04-01T09:38:01.535Z,5.75
2023-04-01T09:39:24.655Z,5.72
2023-04-01T09:40:48.801Z,4.75
2023-04-01T09:42:29.140Z,4.50
2023-04-01T09:44:04.902Z,3.90
2023-04-01T09:45:32.425Z,3.88
2023-04-01T09:46:58.490Z,5.22
2023-04-01T09:48:10.841Z,3.97
2023-04-01T09:49:36.441Z,4.32
2023-04-01T09:51:14.475Z,4.57
2023-04-01T09:52:39.995Z,4.72
2023-04-01T09:54:23.668Z,3.65
2023-04-01T09:55:46.784Z,3.40
2023-04-01T09:57:01.751Z,4.05
2023-04-01T09:58:22.266Z,3.47
2023-04-01T10:00:31.904Z,3.00
2023-04-01T10:01:45.038Z,3.58
2023-04-01T10:03:29.953Z,3.63
2023-04-01T10:05:05.838Z,2.85
2023-04-01T10:06:39.265Z,2.78
2023-04-01T10:07:44.701Z,2.60
2023-04-01T10:08:56.616Z,2.80
2023-04-01T10:10:24.274Z,3.30
2023-04-01T10:12:00.422Z,2.95
2023-04-01T10:13:29.153Z,2.67
2023-04-01T10:15:02.344Z,3.00
2023-04-01T10:16:18.530Z,3.80
2023-04-01T10:17:46.042Z,3.50
2023-04-01T10:19:00.501Z,4.20
2023-04-01T10:20:03.351Z,5.38
2023-04-01T10:21:46.997Z,5.50
2023-04-01T10:23:16.713Z,4.28
2023-04-01T10:24:50.637Z,3.70
2023-04-01T10:26:23.479Z,3.92
2023-04-01T10:28:09.248Z,3.40
2023-04-01T10:30:07.365Z,3.85
2023-04-01T10:31:28.452Z,3.80
2023-04-01T10:33:04.925Z,6.07
2023-04-01T10:34:28.266Z,5.85
2023-04-01T10:36:07.960Z,3.47
2023-04-01T10:37:48.228Z,3.83
2023-04-01T10:39:05.977Z,3.50
2023-04-01T10:40:37.152Z,2.85
2023-04-01T10:42:31.786Z,2.40
2023-04-01T10:44:38.810Z,2.55
2023-04-01T10:45:55.798Z,3.60
2023-04-01T10:47:17.228Z,3.17
2023-04-01T10:48:30.584Z,2.20
2023-04-01T10:49:41.489Z,2.40
2023-04-01T10:51:10.358Z,2.10
2023-04-01T10:52:15.930Z,2.42
2023-04-01T10:54:21.154Z,2.35
2023-04-01T10:56:15.957Z,2.42
2023-04-01T10:57:57.492Z,2.40
2023-04-01T10:59:43.762Z,2.45
2023-04-01T11:01:42.136Z,2.30
2023-04-01T11:03:47.530Z,2.42
2023-04-01T11:05:34.196Z,2.40
2023-04-01T11:07:02.286Z,2.58
2023-04-01T11:08:32.681Z,2.38
2023-04-01T11:10:06.681Z,2.87
2023-04-01T11:11:40.301Z,2.85
2023-04-01T11:13:17.498Z,2.35
2023-04-01T11:14:47.590Z,2.80
2023-04-01T11:15:58.856Z,2.70
2023-04-01T11:17:37.149Z,2.83
2023-04-01T11:18:55.403Z,3.25
2023-04-01T11:20:18.514Z,3.03
2023-04-01T11:21:29.558Z,3.28
2023-04-01T11:23:13.310Z,3.17
2023-04-01T11:24:33.658Z,3.85
2023-04-01T11:26:00.926Z,3.50
2023-04-01T11:27:40.552Z,3.72
2023-04-01T11:29:01.900Z,4.80
2023-04-01T11:30:27.237Z,6.20
2023-04-01T11:32:22.556Z,3.42
2023-04-01T11:33:45.554Z,3.72
2023-04-01T11:34:54.268Z,3.83
2023-04-01T11:36:23.795Z,2.30
2023-04-01T11:37:43.274Z,2.75
2023-04-01T11:39:39.873Z,2.45
2023-04-01T11:41:10.992Z,1.50
2023-04-01T11:42:16.951Z,1.77
2023-04-01T11:44:16.352Z,1.70
2023-04-01T11:45:37.197Z,1.45
2023-04-01T11:47:01.229Z,1.70
2023-04-01T11:48:31.075Z,1.70
2023-04-01T11:49:46.078Z,1.77
2023-04-01T11:50:59.735Z,1.83
2023-04-01T11:52:10.899Z,1.67
2023-04-01T11:53:39.231Z,2.10
2023-04-01T11:54:57.581Z,1.98
2023-04-01T11:56:15.303Z,1.27
2023-04-01T11:57:56.521Z,1.90
2023-04-01T11:59:04.971Z,1.85
2023-04-01T12:00:32.926Z,1.50
2023-04-01T12:01:54.760Z,1.58
2023-04-01T12:03:10.039Z,2.00
2023-04-01T12:04:15.520Z,1.80
2023-04-01T12:05:47.825Z,1.80
2023-04-01T12:07:26.483Z,1.10
2023-04-01T12:08:40.571Z,1.30
2023-04-01T12:10:03.260Z,1.23
2023-04-01T12:11:34.779Z,1.30
2023-04-01T12:12:47.797Z,1.20
2023-04-01T12:14:24.879Z,1.13
2023-04-01T12:15:42.472Z,0.80
2023-04-01T12:16:57.050Z,1.15
2023-04-01T12:18:06.570Z,0.80
2023-04-01T12:19:30.684Z,0.90
2023-04-01T12:20:41.948Z,1.30
2023-04-01T12:22:14.020Z,1.08
2023-04-01T12:23:16.480Z,0.88
2023-04-01T12:24:38.032Z,1.20
2023-04-01T12:26:01.709Z,0.90
2023-04-01T12:27:09.841Z,1.08
2023-04-01T12:28:30.511Z,1.20
2023-04-01T12:30:02.406Z,0.90
2023-04-01T12:31:16.470Z,1.35
2023-04-01T12:33:01.299Z,1.38
2023-04-01T12:34:41.410Z,1.10
2023-04-01T12:36:12.072Z,1.23
2023-04-01T12:37:39.070Z,1.05
2023-04-01T12:39:07.164Z,1.58
2023-04-01T12:40:37.043Z,1.80
2023-04-01T12:41:42.625Z,1.88
2023-04-01T12:42:56.217Z,1.85
2023-04-01T12:43:58.825Z,1.42
2023-04-01T12:45:33.390Z,1.70
2023-04-01T12:46:54.827Z,1.63
2023-04-01T12:48:12.631Z,1.88
2023-04-01T12:49:20.837Z,1.75
2023-04-01T12:50:38.967Z,1.08
2023-04-01T12:51:55.100Z,1.80
2023-04-01T12:53:17.594Z,1.88
2023-04-01T12:54:32.060Z,1.73
2023-04-01T12:55:41.320Z,1.80
2023-04-01T12:57:15.890Z,1.70
2023-04-01T12:58:52.436Z,2.05
2023-04-01T13:00:04.596Z,1.98
2023-04-01T13:01:19.032Z,2.17
2023-04-01T13:02:33.417Z,2.00
2023-04-01T13:03:45.438Z,1.88
2023-04-01T13:05:13.174Z,2.13
2023-04-01T13:06:38.042Z,1.77
2023-04-01T13:08:11.769Z,1.70
2023-04-01T13:09:26.301Z,1.70
2023-04-01T13:10:47.380Z,2.00
2023-04-01T13:12:08.537Z,2.05
2023-04-01T13:13:30.771Z,2.08
2023-04-01T13:14:35.954Z,1.83
2023-04-01T13:16:08.416Z,1.45
2023-04-01T13:17:16.778Z,1.67
2023-04-01T13:18:53.532Z,1.90
2023-04-01T13:20:16.787Z,1.63
2023-04-01T13:21:25.259Z,1.95
2023-04-01T13:22:41.095Z,2.00
2023-04-01T13:24:05.604Z,1.63
2023-04-01T13:25:42.508Z,2.55
2023-04-01T13:26:53.583Z,2.40
2023-04-01T13:28:16.402Z,2.17
2023-04-01T13:29:27.437Z,1.95
2023-04-01T13:30:44.578Z,2.25
2023-04-01T13:32:25.613Z,2.40
2023-04-01T13:33:41.992Z,2.05
2023-04-01T13:35:06.293Z,2.30
2023-04-01T13:36:23.549Z,2.13
2023-04-01T13:37:29.070Z,2.20
2023-04-01T13:38:47.156Z,2.55
2023-04-01T13:40:26.966Z,2.28
2023-04-01T13:41:48.884Z,2.42
2023-04-01T13:43:15.618Z,2.03
2023-04-01T13:44:44.325Z,1.83
2023-04-01T13:46:03.304Z,2.65
2023-04-01T13:47:27.638Z,3.00
2023-04-01T13:48:51.616Z,2.53
2023-04-01T13:50:24.511Z,2.50
2023-04-01T13:51:27.232Z,2.22
2023-04-01T13:52:52.513Z,2.63
2023-04-01T13:54:15.231Z,2.15
2023-04-01T13:55:35.653Z,1.80
2023-04-01T13:56:57.736Z,1.73
2023-04-01T13:58:21.485Z,2.17
2023-04-01T13:59:48.446Z,2.03
2023-04-01T14:00:57.583Z,1.90
2023-04-01T14:02:27.599Z,1.95
2023-04-01T14:03:42.708Z,1.95
2023-04-01T14:04:54.904Z,2.17
2023-04-01T14:06:20.869Z,2.00
2023-04-01T14:07:35.165Z,1.88
2023-04-01T14:08:57.376Z,1.70
2023-04-01T14:10:21.023Z,2.28
2023-04-01T14:11:42.412Z,1.85
2023-04-01T14:12:53.685Z,2.10
2023-04-01T14:14:15.363Z,2.00
2023-04-01T14:15:23.382Z,1.88
2023-04-01T14:16:47.196Z,1.55
2023-04-01T14:18:01.562Z,1.98
2023-04-01T14:19:26.423Z,1.98
2023-04-01T14:20:49.271Z,1.83
2023-04-01T14:22:23.614Z,1.80
2023-04-01T14:23:48.718Z,2.20
2023-04-01T14:25:07.848Z,1.63
2023-04-01T14:26:34.014Z,1.60
2023-04-01T14:27:51.852Z,1.42
2023-04-01T14:29:26.271Z,0.95
2023-04-01T14:31:04.474Z,1.60
2023-04-01T14:32:28.520Z,1.75
2023-04-01T14:33:42.558Z,1.30
2023-04-01T14:34:50.903Z,1.52
2023-04-01T14:36:20.050Z,1.70
2023-04-01T14:37:41.000Z,1.63
2023-04-01T14:40:04.414Z,1.50
2023-04-01T14:41:42.747Z,1.45
2023-04-01T14:43:09.071Z,1.52
2023-04-01T14:44:14.349Z,1.73
2023-04-01T14:45:28.913Z,2.00
2023-04-01T14:46:46.666Z,1.27
2023-04-01T14:48:16.838Z,1.50
2023-04-01T14:49:19.841Z,1.95
2023-04-01T14:50:25.299Z,1.70
2023-04-01T14:51:39.452Z,1.90
2023-04-01T14:53:00.978Z,1.52
2023-04-01T14:54:12.243Z,1.40
2023-04-01T14:55:37.799Z,1.77
2023-04-01T14:57:03.208Z,1.60
2023-04-01T14:58:15.882Z,2.10
2023-04-01T14:59:24.451Z,2.05
2023-04-01T15:00:27.034Z,2.25
2023-04-01T15:01:50.615Z,2.00
2023-04-01T15:03:02.289Z,2.30
2023-04-01T15:04:22.423Z,2.13
2023-04-01T15:05:50.136Z,2.38
2023-04-01T15:07:30.853Z,2.17
2023-04-01T15:08:37.962Z,2.03
2023-04-01T15:10:08.875Z,2.97
2023-04-01T15:12:32.190Z,2.00
2023-04-01T15:14:06.846Z,2.25
2023-04-01T15:15:24.211Z,2.33
2023-04-01T15:16:59.117Z,2.67
2023-04-01T15:18:11.795Z,2.38
2023-04-01T15:19:37.717Z,2.22
2023-04-01T15:20:48.937Z,2.42
2023-04-01T15:21:57.320Z,2.55
2023-04-01T15:23:11.509Z,2.80
2023-04-01T15:24:20.827Z,3.03
2023-04-01T15:25:41.427Z,2.65
2023-04-01T15:28:20.072Z,2.67
2023-04-01T15:29:34.424Z,2.67
2023-04-01T15:31:04.936Z,2.60
2023-04-01T15:32:17.754Z,2.90
2023-04-01T15:33:57.220Z,2.95
2023-04-01T15:35:29.371Z,3.22
2023-04-01T15:36:59.321Z,2.53
2023-04-01T15:38:18.849Z,2.28
2023-04-01T15:39:38.273Z,2.03
2023-04-01T15:40:52.567Z,1.90
2023-04-01T15:42:16.418Z,2.03
2023-04-01T15:43:40.667Z,1.88
2023-04-01T15:44:52.138Z,2.20
2023-04-01T15:46:00.556Z,1.73
2023-04-01T15:47:17.835Z,1.95
2023-04-01T15:48:48.249Z,2.38
2023-04-01T15:50:16.352Z,2.55
2023-04-01T15:51:52.283Z,2.10
2023-04-01T15:53:21.903Z,2.20
2023-04-01T15:54:34.288Z,1.80
2023-04-01T15:56:03.408Z,2.22
2023-04-01T15:57:33.856Z,1.83
2023-04-01T15:58:48.306Z,1.67
2023-04-01T16:00:06.176Z,1.60
2023-04-01T16:01:32.539Z,1.63
2023-04-01T16:03:16.949Z,1.80
2023-04-01T16:04:28.344Z,1.20
2023-04-01T16:05:52.265Z,1.48
2023-04-01T16:07:08.527Z,1.77
2023-04-01T16:08:24.558Z,1.67
2023-04-01T16:09:40.997Z,1.75
2023-04-01T16:11:04.404Z,1.90
2023-04-01T16:12:41.420Z,1.40
2023-04-01T16:14:07.846Z,2.38
2023-04-01T16:15:28.931Z,1.90
2023-04-01T16:16:51.697Z,2.00
2023-04-01T16:18:02.233Z,1.67
2023-04-01T16:19:18.506Z,1.88
2023-04-01T16:20:42.460Z,2.53
2023-04-01T16:21:54.923Z,2.50
2023-04-01T16:23:01.379Z,2.42
2023-04-01T16:24:36.915Z,2.63
2023-04-01T16:25:52.401Z,2.60
2023-04-01T16:27:04.705Z,2.65
2023-04-01T16:28:21.281Z,2.35
2023-04-01T16:29:26.500Z,2.97
2023-04-01T16:30:48.511Z,2.70
2023-04-01T16:32:03.620Z,2.17
2023-04-01T16:33:19.707Z,2.85
2023-04-01T16:34:32.142Z,2.65
2023-04-01T16:36:01.813Z,2.03
2023-04-01T16:37:09.353Z,2.40
2023-04-01T16:38:30.543Z,2.10
2023-04-01T16:39:47.603Z,1.48
2023-04-01T16:41:21.350Z,1.52
2023-04-01T16:42:53.054Z,1.65
2023-04-01T16:44:20.642Z,1.80
2023-04-01T16:45:40.590Z,1.95
2023-04-01T16:46:45.946Z,2.08
2023-04-01T16:47:57.961Z,1.88
2023-04-01T16:49:12.772Z,2.70
2023-04-01T16:50:21.032Z,2.53